createdAt,value
2019-01-03T00:00:57.108Z,19.20
2019-01-03T00:06:39.330Z,11.53
2019-01-03T00:12:21.458Z,13.67
2019-01-03T00:18:03.717Z,10.57
2019-01-03T00:23:26.935Z,11.10
2019-01-03T00:28:57.642Z,14.30
2019-01-03T00:34:21.010Z,12.97
2019-01-03T00:39:44.583Z,10.40
2019-01-03T00:45:27.179Z,11.63
2019-01-03T00:56:26.227Z,15.40
2019-01-03T01:02:08.463Z,13.30
2019-01-03T01:07:31.613Z,8.60
2019-01-03T01:12:54.845Z,11.70
2019-01-03T01:18:17.939Z,7.87
2019-01-03T01:23:41.398Z,11.13
2019-01-03T01:29:25.050Z,13.40
2019-01-03T01:34:50.246Z,12.70
2019-01-03T01:40:13.544Z,11.83
2019-01-03T01:45:57.432Z,11.13
2019-01-03T01:51:20.804Z,9.50
2019-01-03T01:57:03.650Z,6.03
2019-01-03T02:02:26.852Z,5.97
2019-01-03T02:08:10.485Z,13.57
2019-01-03T02:13:34.367Z,13.87
2019-01-03T02:18:57.541Z,8.87
2019-01-03T02:24:20.834Z,18.93
2019-01-03T02:29:44.025Z,8.93
2019-01-03T02:35:07.198Z,11.33
2019-01-03T02:40:30.378Z,10.77
2019-01-03T02:52:05.346Z,14.43
2019-01-03T02:57:29.538Z,11.10
2019-01-03T03:03:08.314Z,15.60
2019-01-03T03:08:53.903Z,12.47
2019-01-03T03:14:39.028Z,17.67
2019-01-03T03:20:02.182Z,12.47
2019-01-03T03:25:46.186Z,14.33
2019-01-03T03:36:39.873Z,18.27
2019-01-03T03:42:23.878Z,22.87
2019-01-03T03:47:49.390Z,30.60
2019-01-03T03:53:13.370Z,24.60
2019-01-03T03:58:36.667Z,30.10
2019-01-03T04:04:18.986Z,21.90
2019-01-03T04:10:01.211Z,27.20
2019-01-03T04:15:43.438Z,26.70
2019-01-03T04:21:25.658Z,18.97
2019-01-03T04:26:48.818Z,22.13
2019-01-03T04:32:31.044Z,21.87
2019-01-03T04:37:54.202Z,29.73
2019-01-03T04:43:17.365Z,35.33
2019-01-03T04:54:26.097Z,40.07
2019-01-03T04:59:49.288Z,29.43
2019-01-03T05:05:12.437Z,34.10
2019-01-03T05:10:54.982Z,35.67
2019-01-03T05:16:18.219Z,32.37
2019-01-03T05:22:00.444Z,48.87
2019-01-03T05:27:23.622Z,41.20
2019-01-03T05:33:06.147Z,42.37
2019-01-03T05:38:29.294Z,50.63
2019-01-03T05:43:52.462Z,51.27
2019-01-03T05:49:15.891Z,48.67
2019-01-03T05:54:39.045Z,62.73
2019-01-03T06:00:02.279Z,47.57
2019-01-03T06:05:37.587Z,69.40
2019-01-03T06:11:00.736Z,55.37
2019-01-03T06:16:23.893Z,60.33
2019-01-03T06:21:47.043Z,79.13
2019-01-03T06:27:10.193Z,72.97
2019-01-03T06:32:33.436Z,47.37
2019-01-03T06:37:56.604Z,48.57
2019-01-03T06:43:19.766Z,58.47
2019-01-03T06:48:42.969Z,61.67
2019-01-03T06:54:25.356Z,61.73
2019-01-03T06:59:48.633Z,60.67
2019-01-03T07:05:11.834Z,87.70
2019-01-03T07:10:35.019Z,61.37
2019-01-03T07:16:17.297Z,48.07
2019-01-03T07:21:59.805Z,45.90
2019-01-03T07:27:42.029Z,38.43
2019-01-03T07:33:24.332Z,45.07
2019-01-03T07:38:47.855Z,41.03
2019-01-03T07:44:11.101Z,44.37
2019-01-03T07:49:53.498Z,60.00
2019-01-03T07:55:16.663Z,57.90
2019-01-03T08:00:40.122Z,53.13
2019-01-03T08:06:03.344Z,61.27
2019-01-03T08:11:26.655Z,59.47
2019-01-03T08:16:49.928Z,62.40
2019-01-03T08:22:32.148Z,58.43
2019-01-03T08:28:14.369Z,55.30
2019-01-03T08:33:56.586Z,59.80
2019-01-03T08:39:18.807Z,58.70
2019-01-03T08:44:40.223Z,60.73
2019-01-03T08:50:06.028Z,62.03
2019-01-03T08:55:44.455Z,58.60
2019-01-03T09:01:06.386Z,55.37
2019-01-03T09:06:28.254Z,51.23
2019-01-03T09:12:10.528Z,60.37
2019-01-03T09:17:33.700Z,61.23
2019-01-03T09:22:56.890Z,50.20
2019-01-03T09:28:39.164Z,54.03
2019-01-03T09:34:02.444Z,56.67
2019-01-03T09:44:46.592Z,54.30
2019-01-03T09:49:51.012Z,49.43
2019-01-03T09:54:55.275Z,50.27
2019-01-03T09:59:59.533Z,46.93
2019-01-03T10:05:03.998Z,44.87
2019-01-03T10:10:08.844Z,41.83
2019-01-03T10:15:13.277Z,40.50
2019-01-03T10:20:17.637Z,45.87
2019-01-03T10:25:21.987Z,41.03
2019-01-03T10:30:26.329Z,38.33
2019-01-03T10:35:31.009Z,35.20
2019-01-03T10:40:35.324Z,36.20
2019-01-03T10:45:39.687Z,35.27
2019-01-03T10:50:43.921Z,41.63
2019-01-03T10:55:48.312Z,36.70
2019-01-03T11:00:53.000Z,42.23
2019-01-03T11:05:57.329Z,36.27
2019-01-03T11:11:02.194Z,34.27
2019-01-03T11:16:18.096Z,30.03
2019-01-03T11:21:22.397Z,30.33
2019-01-03T11:31:36.919Z,22.73
2019-01-03T11:42:10.635Z,22.90
2019-01-03T11:47:14.919Z,19.33
2019-01-03T11:52:19.557Z,19.10
2019-01-03T11:57:23.838Z,23.47
2019-01-03T12:02:28.231Z,15.33
2019-01-03T12:07:32.675Z,16.70
2019-01-03T12:12:37.051Z,18.73
2019-01-03T12:17:43.238Z,15.33
2019-01-03T12:22:47.542Z,15.60
2019-01-03T12:27:51.976Z,16.07
2019-01-03T12:32:56.655Z,14.07
2019-01-03T12:38:00.904Z,15.50
2019-01-03T12:43:05.427Z,16.63
2019-01-03T12:48:09.649Z,15.23
2019-01-03T12:53:13.959Z,15.20
2019-01-03T12:58:37.337Z,14.13
2019-01-03T13:04:00.960Z,14.90
2019-01-03T13:09:44.586Z,17.37
2019-01-03T13:15:08.693Z,15.73
2019-01-03T13:20:24.570Z,11.80
2019-01-03T13:35:49.973Z,8.93
2019-01-03T13:41:13.300Z,9.00
2019-01-03T13:46:17.911Z,9.33
2019-01-03T13:52:01.529Z,10.60
2019-01-03T13:57:25.177Z,8.93
2019-01-03T14:07:59.090Z,10.97
2019-01-03T14:13:03.406Z,9.17
2019-01-03T14:18:07.759Z,9.73
2019-01-03T14:23:12.401Z,11.30
2019-01-03T14:28:16.747Z,10.43
2019-01-03T14:33:40.163Z,13.30
2019-01-03T14:38:44.551Z,11.93
2019-01-03T14:44:07.891Z,15.03
2019-01-03T14:49:31.222Z,13.37
2019-01-03T14:54:54.523Z,12.63
2019-01-03T15:05:28.204Z,10.10
2019-01-03T15:10:51.441Z,10.63
2019-01-03T15:15:55.694Z,11.13
2019-01-03T15:26:40.258Z,11.33
2019-01-03T15:31:44.815Z,13.33
2019-01-03T15:36:49.437Z,14.10
2019-01-03T15:41:53.849Z,13.57
2019-01-03T15:46:58.088Z,18.27
2019-01-03T15:52:02.436Z,13.43
2019-01-03T15:57:07.158Z,12.93
2019-01-03T16:08:06.004Z,11.50
2019-01-03T16:13:29.250Z,15.60
2019-01-03T16:18:33.865Z,18.40
2019-01-03T16:29:19.340Z,16.87
2019-01-03T16:34:23.809Z,15.33
2019-01-03T16:39:28.156Z,19.03
2019-01-03T16:44:51.856Z,32.87
2019-01-03T16:49:56.574Z,16.13
2019-01-03T17:05:39.537Z,14.67
2019-01-03T17:11:03.124Z,16.27
2019-01-03T17:16:07.501Z,15.37
2019-01-03T17:21:11.919Z,17.47
2019-01-03T17:26:16.297Z,16.23
2019-01-03T17:31:20.824Z,16.10
2019-01-03T17:36:25.318Z,21.33
2019-01-03T17:41:29.681Z,21.20
2019-01-03T17:46:34.017Z,19.30
2019-01-03T17:51:38.713Z,21.90
2019-01-03T17:56:43.109Z,23.43
2019-01-03T18:01:47.847Z,22.17
2019-01-03T18:06:52.465Z,21.23
2019-01-03T18:11:58.093Z,19.00
2019-01-03T18:22:51.248Z,26.60
2019-01-03T18:28:14.624Z,34.17
2019-01-03T18:33:30.764Z,24.30
2019-01-03T18:43:44.723Z,28.53
2019-01-03T18:54:17.573Z,22.00
2019-01-03T18:59:40.888Z,29.00
2019-01-03T19:05:04.142Z,26.00
2019-01-03T19:10:49.020Z,20.50
2019-01-03T19:16:12.384Z,24.97
2019-01-03T19:21:35.775Z,19.27
2019-01-03T19:26:59.094Z,24.77
2019-01-03T19:32:03.795Z,22.63
2019-01-03T19:42:17.779Z,17.20
2019-01-03T19:47:41.102Z,17.57
2019-01-03T20:09:13.779Z,16.97
2019-01-03T20:14:18.417Z,19.70
2019-01-03T20:25:12.141Z,24.73
2019-01-03T20:30:16.446Z,20.33
2019-01-03T20:35:40.060Z,40.77
2019-01-03T20:40:44.399Z,30.43
2019-01-03T20:45:48.700Z,25.60
2019-01-03T20:51:12.314Z,19.77
2019-01-03T20:56:55.965Z,20.77
2019-01-03T21:02:00.645Z,24.03
2019-01-03T21:07:44.275Z,29.63
2019-01-03T21:12:48.904Z,32.70
2019-01-03T21:18:12.196Z,34.87
2019-01-03T21:23:16.490Z,27.33
2019-01-03T21:28:39.911Z,15.83
2019-01-03T21:34:03.184Z,26.17
2019-01-03T21:39:47.170Z,32.80
2019-01-03T21:45:03.067Z,30.13
2019-01-03T21:50:48.148Z,23.90
2019-01-03T21:55:52.439Z,34.97
2019-01-03T22:06:44.850Z,22.93
2019-01-03T22:12:08.155Z,23.87
2019-01-03T22:17:12.878Z,39.43
2019-01-03T22:22:17.195Z,33.97
2019-01-03T22:27:40.502Z,30.47
2019-01-03T22:32:44.787Z,22.53
2019-01-03T22:43:17.812Z,25.87
2019-01-03T22:48:34.061Z,35.17
2019-01-03T22:53:49.771Z,36.20
2019-01-03T22:58:54.116Z,67.93
2019-01-03T23:04:17.425Z,53.00
2019-01-03T23:09:21.663Z,34.97
2019-01-03T23:30:34.733Z,29.27
2019-01-03T23:41:27.151Z,30.20
2019-01-03T23:51:53.043Z,29.40
